Saguaro National Park, AZ

11:29 AM MST on February 07, 2016 (GMT -0700)
UA WRRC WEATHER | | Change Station
CLOSE
Current Station
Personal Weather Station
Location: Tucson, AZ
Elevation: 2431 ft
Nearby Weather Stations

Elev 2431 ft 32.23 °N, 110.94 °W | Updated 2 minutes ago

Clear
Clear
65.5 °F
Feels Like 65.5 °F
N
8.0
Wind Variable Wind from SW
Gusts 8.0 mph

Today
High -- | Low -- °F
--% Chance of Precip.
Yesterday
High -- | Low -- °F
Precip. -- in
Pressure 30.12 in
Visibility 10.0 miles
Clouds Clear
Dew Point 11 °F
Humidity 12%
Rainfall 0.00 in
Snow Depth Not available.
7:13 AM 6:02 PM
Waning Crescent, 1% visible
METAR KDMA 071758Z AUTO 03004KT 10SM CLR 19/M14 A3019 RMK AO2 SLP200 T01941144 10194 20063 58001 $
Pressure 30.12 in
Visibility 10.0 miles
Clouds Clear
Dew Point 11 °F
Humidity 12%
Rainfall 0.00 in
Snow Depth Not available.
7:13 AM 6:02 PM
Waning Crescent, 1% visible
METAR KDMA 071758Z AUTO 03004KT 10SM CLR 19/M14 A3019 RMK AO2 SLP200 T01941144 10194 20063 58001 $

10-Day Weather Forecast

Almanac

Astronomy

Feb. 07, 2016 Rise Set
Actual Time
Civil Twilight
Nautical Twilight
Astronomical Twilight
Moon
Length of Visible Light
Length of Day
Tomorrow will be .
, % of the Moon is Illuminated

Today's Extremes

State Highs State Lows

Community

WunderPhotos

Upload Photos

1,891,276 photos uploaded!

WunderBlog® & News

Nearby

Air Quality

  Air Quality AQ Index Pollutant
Not available.

Snow Depth

Station Depth Elevation

Earthquake Activity

City Distance Mag. Time & Date
Minimum magnitude displayed is 2.5.

Coastal Water Temperatures

Place Temperature

Stations

Nearby Weather Stations

Station Location Temp. Windchill Dew Point Humidity Wind Precip. Elev Updated Type
                   

Watches & Warnings

There are currently no watches in effect.